createdAt,value
2023-03-02T00:02:29.437Z,28.05
2023-03-02T00:05:17.288Z,26.33
2023-03-02T00:08:05.558Z,24.88
2023-03-02T00:10:54.634Z,24.67
2023-03-02T00:13:48.463Z,26.05
2023-03-02T00:19:23.617Z,26.40
2023-03-02T00:22:11.338Z,28.13
2023-03-02T00:24:59.020Z,26.13
2023-03-02T00:27:50.012Z,26.58
2023-03-02T00:30:40.804Z,28.83
2023-03-02T00:33:28.651Z,26.35
2023-03-02T00:36:21.104Z,25.25
2023-03-02T00:39:08.934Z,29.17
2023-03-02T00:41:56.573Z,27.35
2023-03-02T00:44:44.208Z,27.90
2023-03-02T00:47:35.374Z,27.15
2023-03-02T00:50:23.026Z,31.60
2023-03-02T00:53:10.813Z,27.10
2023-03-02T00:55:58.381Z,27.02
2023-03-02T00:58:46.363Z,30.02
2023-03-02T01:01:34.823Z,26.75
2023-03-02T01:04:22.314Z,33.55
2023-03-02T01:07:15.206Z,28.25
2023-03-02T01:10:03.017Z,28.52
2023-03-02T01:12:52.044Z,27.05
2023-03-02T01:15:39.819Z,28.55
2023-03-02T01:18:27.647Z,28.08
2023-03-02T01:21:16.956Z,26.35
2023-03-02T01:24:05.010Z,29.80
2023-03-02T01:26:52.841Z,30.35
2023-03-02T01:29:41.049Z,26.77
2023-03-02T01:32:29.008Z,27.45
2023-03-02T01:35:17.236Z,26.88
2023-03-02T01:38:04.850Z,29.98
2023-03-02T01:40:55.366Z,31.30
2023-03-02T01:43:43.250Z,27.70
2023-03-02T01:46:35.387Z,28.38
2023-03-02T01:49:23.973Z,31.23
2023-03-02T01:52:12.568Z,29.10
2023-03-02T01:55:06.591Z,28.88
2023-03-02T01:57:58.411Z,28.75
2023-03-02T02:00:46.448Z,28.92
2023-03-02T02:03:34.364Z,26.88
2023-03-02T02:06:22.022Z,25.88
2023-03-02T02:09:15.031Z,29.38
2023-03-02T02:12:03.146Z,33.00
2023-03-02T02:14:51.289Z,27.85
2023-03-02T02:17:38.914Z,29.95
2023-03-02T02:20:40.176Z,29.00
2023-03-02T02:23:59.387Z,28.98
2023-03-02T02:26:53.430Z,27.23
2023-03-02T02:29:48.248Z,29.15
2023-03-02T02:32:37.725Z,28.40
2023-03-02T02:35:34.881Z,31.58
2023-03-02T02:38:24.783Z,32.35
2023-03-02T02:41:24.768Z,30.65
2023-03-02T02:44:18.949Z,31.90
2023-03-02T02:47:19.681Z,29.50
2023-03-02T02:53:27.151Z,29.98
2023-03-02T02:56:16.596Z,33.65
2023-03-02T02:59:19.669Z,29.38
2023-03-02T03:02:07.218Z,30.83
2023-03-02T03:05:02.728Z,35.67
2023-03-02T03:07:50.368Z,30.58
2023-03-02T03:10:42.194Z,28.92
2023-03-02T03:13:29.759Z,34.28
2023-03-02T03:16:19.082Z,29.27
2023-03-02T03:19:28.697Z,27.73
2023-03-02T03:22:17.577Z,25.52
2023-03-02T03:25:05.774Z,29.10
2023-03-02T03:27:53.334Z,27.50
2023-03-02T03:30:41.248Z,30.90
2023-03-02T03:33:28.952Z,33.30
2023-03-02T03:36:18.508Z,26.25
2023-03-02T03:39:06.963Z,31.17
2023-03-02T03:41:54.707Z,30.58
2023-03-02T03:44:42.264Z,28.70
2023-03-02T03:47:29.807Z,29.77
2023-03-02T03:50:17.445Z,32.22
2023-03-02T03:53:05.137Z,30.38
2023-03-02T03:55:53.372Z,32.10
2023-03-02T03:58:41.082Z,34.63
2023-03-02T04:01:35.054Z,31.65
2023-03-02T04:04:29.377Z,27.83
2023-03-02T04:07:17.172Z,29.52
2023-03-02T04:10:06.467Z,29.98
2023-03-02T04:12:54.361Z,31.23
2023-03-02T04:15:42.486Z,30.77
2023-03-02T04:18:37.770Z,29.80
2023-03-02T04:21:25.492Z,30.33
2023-03-02T04:24:14.606Z,33.88
2023-03-02T04:27:02.515Z,28.77
2023-03-02T04:29:53.109Z,28.00
2023-03-02T04:32:40.884Z,27.60
2023-03-02T04:35:28.786Z,27.90
2023-03-02T04:38:17.989Z,28.70
2023-03-02T04:41:07.208Z,27.98
2023-03-02T04:43:54.819Z,28.95
2023-03-02T04:46:44.708Z,25.08
2023-03-02T04:49:32.957Z,30.98
2023-03-02T04:52:23.424Z,31.95
2023-03-02T04:55:19.254Z,28.23
2023-03-02T04:58:08.057Z,29.17
2023-03-02T05:01:02.269Z,26.88
2023-03-02T05:03:50.180Z,29.35
2023-03-02T05:06:42.276Z,27.45
2023-03-02T05:09:33.567Z,26.23
2023-03-02T05:12:21.883Z,24.90
2023-03-02T05:15:09.880Z,29.77
2023-03-02T05:17:58.441Z,25.90
2023-03-02T05:20:47.072Z,26.98
2023-03-02T05:23:34.856Z,27.13
2023-03-02T05:26:22.797Z,27.17
2023-03-02T05:29:10.485Z,27.05
2023-03-02T05:31:59.003Z,29.05
2023-03-02T05:34:46.849Z,26.20
2023-03-02T05:37:34.728Z,28.75
2023-03-02T05:40:22.299Z,25.83
2023-03-02T05:43:12.908Z,27.02
2023-03-02T05:46:00.692Z,29.40
2023-03-02T05:48:48.413Z,29.67
2023-03-02T05:51:36.074Z,29.80
2023-03-02T05:54:24.001Z,30.08
2023-03-02T05:57:15.215Z,31.77
2023-03-02T06:00:04.514Z,28.90
2023-03-02T06:02:52.188Z,27.27
2023-03-02T06:05:40.098Z,28.08
2023-03-02T06:08:27.697Z,27.67
2023-03-02T06:11:15.522Z,27.52
2023-03-02T06:14:03.059Z,28.88
2023-03-02T06:16:50.961Z,27.20
2023-03-02T06:19:38.541Z,30.10
2023-03-02T06:22:26.277Z,27.77
2023-03-02T06:25:19.735Z,28.25
2023-03-02T06:28:07.677Z,28.92
2023-03-02T06:30:55.270Z,37.22
2023-03-02T06:33:42.694Z,25.13
2023-03-02T06:36:30.379Z,29.40
2023-03-02T06:39:18.320Z,30.35
2023-03-02T06:42:06.273Z,24.60
2023-03-02T06:44:55.169Z,22.45
2023-03-02T06:47:42.836Z,27.02
2023-03-02T06:50:30.632Z,28.08
2023-03-02T06:53:20.404Z,22.48
2023-03-02T06:56:08.042Z,23.75
2023-03-02T06:58:55.591Z,28.58
2023-03-02T07:01:43.124Z,25.08
2023-03-02T07:04:30.970Z,22.40
2023-03-02T07:07:18.558Z,25.08
2023-03-02T07:10:07.772Z,30.02
2023-03-02T07:12:55.501Z,24.00
2023-03-02T07:15:43.039Z,22.05
2023-03-02T07:18:30.497Z,21.50
2023-03-02T07:21:18.108Z,23.08
2023-03-02T07:24:08.772Z,26.85
2023-03-02T07:26:56.674Z,22.75
2023-03-02T07:29:44.335Z,24.77
2023-03-02T07:32:32.298Z,19.33
2023-03-02T07:35:20.796Z,18.27
2023-03-02T07:38:08.799Z,21.67
2023-03-02T07:40:56.547Z,17.05
2023-03-02T07:43:44.576Z,18.83
2023-03-02T07:46:32.227Z,21.05
2023-03-02T07:49:20.512Z,19.73
2023-03-02T07:52:08.171Z,20.38
2023-03-02T07:54:55.994Z,18.15
2023-03-02T07:57:43.664Z,18.95
2023-03-02T08:00:31.400Z,19.45
2023-03-02T08:03:19.056Z,20.13
2023-03-02T08:06:09.721Z,16.45
2023-03-02T08:08:57.954Z,19.77
2023-03-02T08:11:47.800Z,21.30
2023-03-02T08:14:36.083Z,20.08
2023-03-02T08:17:23.846Z,19.98
2023-03-02T08:20:12.205Z,21.13
2023-03-02T08:23:00.121Z,20.40
2023-03-02T08:25:48.265Z,19.23
2023-03-02T08:28:36.237Z,25.00
2023-03-02T08:31:24.046Z,20.58
2023-03-02T08:34:14.778Z,17.73
2023-03-02T08:37:02.783Z,22.92
2023-03-02T08:39:51.837Z,21.73
2023-03-02T08:42:39.335Z,19.80
2023-03-02T08:45:27.454Z,18.83
2023-03-02T08:48:15.155Z,21.70
2023-03-02T08:51:06.970Z,20.35
2023-03-02T08:53:56.330Z,17.95
2023-03-02T08:56:44.636Z,18.67
2023-03-02T08:59:32.238Z,19.13
2023-03-02T09:02:19.736Z,18.23
2023-03-02T09:05:07.717Z,19.65
2023-03-02T09:07:55.264Z,21.85
2023-03-02T09:10:43.124Z,18.33
2023-03-02T09:13:30.916Z,21.40
2023-03-02T09:16:20.430Z,25.65
2023-03-02T09:19:08.368Z,18.42
2023-03-02T09:21:56.117Z,19.58
2023-03-02T09:24:43.695Z,20.33
2023-03-02T09:27:31.475Z,18.58
2023-03-02T09:30:19.377Z,19.40
2023-03-02T09:33:07.482Z,21.50
2023-03-02T09:35:55.287Z,19.60
2023-03-02T09:38:43.072Z,21.52
2023-03-02T09:42:03.605Z,17.67
2023-03-02T09:45:16.041Z,21.75
2023-03-02T09:48:28.467Z,17.42
2023-03-02T09:51:26.312Z,16.80
2023-03-02T09:54:21.407Z,19.52
2023-03-02T09:57:37.128Z,23.70
2023-03-02T10:00:33.508Z,18.63
2023-03-02T10:03:32.434Z,15.75
2023-03-02T10:06:20.665Z,21.02
2023-03-02T10:09:10.648Z,20.42
2023-03-02T10:12:38.756Z,18.45
2023-03-02T10:15:47.373Z,16.67
2023-03-02T10:19:03.687Z,17.20
2023-03-02T10:22:09.707Z,18.23
2023-03-02T10:25:21.842Z,16.38
2023-03-02T10:28:34.540Z,17.42
2023-03-02T10:31:31.248Z,18.15
2023-03-02T10:34:20.235Z,17.30
2023-03-02T10:37:17.761Z,17.02
2023-03-02T10:40:06.046Z,17.55
2023-03-02T10:42:55.348Z,22.38
2023-03-02T10:45:43.176Z,21.83
2023-03-02T10:48:33.847Z,19.80
2023-03-02T10:51:40.023Z,16.67
2023-03-02T10:54:33.137Z,18.38
2023-03-02T10:57:34.983Z,14.18
2023-03-02T11:00:28.557Z,17.10
2023-03-02T11:03:23.763Z,15.60
2023-03-02T11:06:22.121Z,17.30
2023-03-02T11:09:15.195Z,17.42
2023-03-02T11:12:03.232Z,15.15
2023-03-02T11:15:05.575Z,18.60
2023-03-02T11:18:08.360Z,16.38
2023-03-02T11:21:04.609Z,22.13
2023-03-02T11:24:14.360Z,15.50
2023-03-02T11:27:17.174Z,15.95
2023-03-02T11:30:13.237Z,16.25
2023-03-02T11:33:14.810Z,16.42
2023-03-02T11:36:36.751Z,19.67
2023-03-02T11:39:35.140Z,18.55
2023-03-02T11:42:40.070Z,25.92
2023-03-02T11:45:32.040Z,15.07
2023-03-02T11:48:34.159Z,15.70
2023-03-02T11:51:42.378Z,15.27
2023-03-02T11:54:43.938Z,15.45
2023-03-02T11:57:39.829Z,13.85
2023-03-02T12:00:31.255Z,15.43
2023-03-02T12:03:39.697Z,19.20
2023-03-02T12:06:38.406Z,15.55
2023-03-02T12:09:36.537Z,17.27
2023-03-02T12:12:33.367Z,16.02
2023-03-02T12:15:29.351Z,15.15
2023-03-02T12:18:46.416Z,19.50
2023-03-02T12:21:44.242Z,14.75
2023-03-02T12:24:37.175Z,14.90
2023-03-02T12:27:27.641Z,14.68
2023-03-02T12:30:30.316Z,13.82
2023-03-02T12:33:22.499Z,15.68
2023-03-02T12:36:20.504Z,15.95
2023-03-02T12:39:23.620Z,19.95
2023-03-02T12:42:17.020Z,13.73
2023-03-02T12:45:15.999Z,18.27
2023-03-02T12:48:15.980Z,15.80
2023-03-02T12:51:05.464Z,14.27
2023-03-02T12:54:07.119Z,15.07
2023-03-02T12:57:07.412Z,15.52
2023-03-02T13:00:01.905Z,15.98
2023-03-02T13:02:55.206Z,14.77
2023-03-02T13:05:45.809Z,17.30
2023-03-02T13:08:37.552Z,14.43
2023-03-02T13:11:33.680Z,14.05
2023-03-02T13:14:29.822Z,10.77
2023-03-02T13:17:31.043Z,18.90
2023-03-02T13:20:20.894Z,16.73
2023-03-02T13:23:14.589Z,15.13
2023-03-02T13:26:04.952Z,13.63
2023-03-02T13:29:25.933Z,14.85
2023-03-02T13:32:40.044Z,15.98
2023-03-02T13:35:35.303Z,13.85
2023-03-02T13:38:26.556Z,14.45
2023-03-02T13:41:25.360Z,13.40
2023-03-02T13:44:21.591Z,15.38
2023-03-02T13:47:23.084Z,18.90
2023-03-02T13:50:18.710Z,17.98
2023-03-02T13:53:07.297Z,15.05
2023-03-02T13:55:55.382Z,13.35
2023-03-02T13:58:43.128Z,17.55
2023-03-02T14:01:31.035Z,21.23
2023-03-02T14:04:24.253Z,15.18
2023-03-02T14:07:12.210Z,17.60
2023-03-02T14:10:00.009Z,15.10
2023-03-02T14:13:06.670Z,16.23
2023-03-02T14:15:57.568Z,14.32
2023-03-02T14:18:49.375Z,14.95
2023-03-02T14:21:37.253Z,18.33
2023-03-02T14:24:25.166Z,20.70
2023-03-02T14:27:16.819Z,15.60
2023-03-02T14:30:16.031Z,16.48
2023-03-02T14:33:03.817Z,16.60
2023-03-02T14:36:00.360Z,18.10
2023-03-02T14:38:50.935Z,17.95
2023-03-02T14:41:52.454Z,17.48
2023-03-02T14:44:44.588Z,16.63
2023-03-02T14:47:40.960Z,18.27
2023-03-02T14:50:28.667Z,14.63
2023-03-02T14:53:23.146Z,20.33
2023-03-02T14:56:12.203Z,20.58
2023-03-02T14:59:09.407Z,19.42
2023-03-02T15:02:06.197Z,19.33
2023-03-02T15:05:03.474Z,18.70
2023-03-02T15:07:54.627Z,20.05
2023-03-02T15:10:43.105Z,19.83
2023-03-02T15:13:30.899Z,15.23
2023-03-02T15:16:21.012Z,15.50
2023-03-02T15:19:09.102Z,14.02
2023-03-02T15:21:57.125Z,17.13
2023-03-02T15:24:46.238Z,14.25
2023-03-02T15:27:36.516Z,15.95
2023-03-02T15:30:25.163Z,15.25
2023-03-02T15:33:13.162Z,17.58
2023-03-02T15:36:00.962Z,17.67
2023-03-02T15:38:50.934Z,17.48
2023-03-02T15:41:41.099Z,19.13
2023-03-02T15:44:29.873Z,21.75
2023-03-02T15:47:23.975Z,17.33
2023-03-02T15:50:12.233Z,16.70
2023-03-02T15:53:00.323Z,18.02
2023-03-02T15:55:55.195Z,16.70
2023-03-02T15:59:04.298Z,17.30
2023-03-02T16:16:55.550Z,16.90
2023-03-02T16:22:45.713Z,14.43
2023-03-02T16:25:43.864Z,13.02
2023-03-02T16:28:32.007Z,12.13
2023-03-02T16:31:21.274Z,13.20
2023-03-02T16:34:11.495Z,10.10
2023-03-02T16:36:59.497Z,14.27
2023-03-02T16:39:48.301Z,14.73
2023-03-02T16:42:38.628Z,24.23
2023-03-02T16:45:27.031Z,14.40
2023-03-02T16:48:21.644Z,13.00
2023-03-02T16:51:09.964Z,11.23
2023-03-02T16:53:58.761Z,14.63
2023-03-02T16:56:47.865Z,12.57
2023-03-02T16:59:39.116Z,12.65
2023-03-02T17:02:27.141Z,13.32
2023-03-02T17:05:17.075Z,11.18
2023-03-02T17:08:06.602Z,9.60
2023-03-02T17:10:54.328Z,11.90
2023-03-02T17:13:42.483Z,10.05
2023-03-02T17:16:33.524Z,12.57
2023-03-02T17:19:27.452Z,15.27
2023-03-02T17:22:24.521Z,10.23
2023-03-02T17:25:15.716Z,12.02
2023-03-02T17:28:06.889Z,13.95
2023-03-02T17:30:59.973Z,11.20
2023-03-02T17:33:57.877Z,10.98
2023-03-02T17:36:51.720Z,11.30
2023-03-02T17:39:39.985Z,12.18
2023-03-02T17:42:28.727Z,9.45
2023-03-02T17:45:22.524Z,11.60
2023-03-02T17:48:11.127Z,10.52
2023-03-02T18:19:11.894Z,11.20
2023-03-02T18:22:02.137Z,9.75
2023-03-02T18:24:54.222Z,10.73
2023-03-02T18:27:49.670Z,10.13
2023-03-02T18:30:37.580Z,10.73
2023-03-02T18:33:25.753Z,11.68
2023-03-02T18:36:16.917Z,11.52
2023-03-02T18:39:07.780Z,10.65
2023-03-02T18:41:55.794Z,13.32
2023-03-02T18:44:47.027Z,11.68
2023-03-02T18:47:36.938Z,8.55
2023-03-02T18:50:29.552Z,10.13
2023-03-02T18:53:25.300Z,12.65
2023-03-02T18:56:13.414Z,9.98
2023-03-02T18:59:02.245Z,10.40
2023-03-02T19:01:58.927Z,12.38
2023-03-02T19:04:48.606Z,13.30
2023-03-02T19:07:36.423Z,11.75
2023-03-02T19:10:24.160Z,12.07
2023-03-02T19:13:12.215Z,11.27
2023-03-02T19:24:07.386Z,10.63
2023-03-02T19:26:55.958Z,10.43
2023-03-02T19:29:46.752Z,14.05
2023-03-02T19:32:34.476Z,9.52
2023-03-02T19:35:27.281Z,12.27
2023-03-02T19:38:14.945Z,12.77
2023-03-02T19:41:03.193Z,13.13
2023-03-02T19:43:54.486Z,13.43
2023-03-02T19:46:45.149Z,11.73
2023-03-02T19:49:32.998Z,11.65
2023-03-02T19:52:23.842Z,12.27
2023-03-02T19:55:16.902Z,12.43
2023-03-02T19:58:05.066Z,10.45
2023-03-02T20:00:55.874Z,12.23
2023-03-02T20:03:47.564Z,12.23
2023-03-02T20:06:38.596Z,13.27
2023-03-02T20:09:30.356Z,14.63
2023-03-02T20:12:21.866Z,11.30
2023-03-02T20:15:17.855Z,14.45
2023-03-02T20:18:09.010Z,13.05
2023-03-02T20:20:57.586Z,13.32
2023-03-02T20:23:50.274Z,15.98
2023-03-02T20:26:38.472Z,14.27
2023-03-02T20:29:27.278Z,11.55
2023-03-02T20:32:17.795Z,11.45
2023-03-02T20:35:05.970Z,12.88
2023-03-02T20:37:55.747Z,14.18
2023-03-02T20:40:49.541Z,11.98
2023-03-02T20:43:37.975Z,13.43
2023-03-02T20:46:32.739Z,15.32
2023-03-02T20:49:21.828Z,14.88
2023-03-02T20:52:12.832Z,14.40
2023-03-02T20:55:02.554Z,16.20
2023-03-02T20:57:50.532Z,15.63
2023-03-02T21:00:39.290Z,21.15
2023-03-02T21:03:27.121Z,15.68
2023-03-02T21:06:15.808Z,15.45
2023-03-02T21:09:09.474Z,16.77
2023-03-02T21:11:59.969Z,14.63
2023-03-02T21:14:48.486Z,14.63
2023-03-02T21:17:39.140Z,15.75
2023-03-02T21:20:32.100Z,14.57
2023-03-02T21:23:23.084Z,16.88
2023-03-02T21:26:12.992Z,12.93
2023-03-02T21:29:00.918Z,17.42
2023-03-02T21:31:49.540Z,14.50
2023-03-02T21:34:38.577Z,15.27
2023-03-02T21:37:36.035Z,17.30
2023-03-02T21:40:31.271Z,14.85
2023-03-02T21:43:19.888Z,20.05
2023-03-02T21:46:07.648Z,16.65
2023-03-02T21:48:55.518Z,15.52
2023-03-02T21:51:43.548Z,18.83
2023-03-02T21:54:31.628Z,16.23
2023-03-02T21:57:19.448Z,19.20
2023-03-02T22:00:09.948Z,18.58
2023-03-02T22:02:57.604Z,18.98
2023-03-02T22:05:45.147Z,16.85
2023-03-02T22:08:39.911Z,15.80
2023-03-02T22:11:35.197Z,17.13
2023-03-02T22:14:23.140Z,19.50
2023-03-02T22:17:20.158Z,18.52
2023-03-02T22:20:17.309Z,19.27
2023-03-02T22:23:16.189Z,18.92
2023-03-02T22:26:16.137Z,17.02
2023-03-02T22:29:41.225Z,19.58
2023-03-02T22:32:33.861Z,20.15
2023-03-02T22:35:32.575Z,17.60
2023-03-02T22:38:29.549Z,19.10
2023-03-02T22:41:20.111Z,21.02
2023-03-02T22:44:12.259Z,18.05
2023-03-02T22:47:03.061Z,19.80
2023-03-02T22:49:58.143Z,18.92
2023-03-02T22:52:48.458Z,17.90
2023-03-02T22:55:41.344Z,22.10
2023-03-02T22:58:39.758Z,21.05
2023-03-02T23:01:43.025Z,20.08
2023-03-02T23:04:35.217Z,14.48
2023-03-02T23:07:23.641Z,21.15
2023-03-02T23:10:21.936Z,22.60
2023-03-02T23:13:15.097Z,21.67
2023-03-02T23:16:12.718Z,23.90
2023-03-02T23:19:04.970Z,21.33
2023-03-02T23:21:56.119Z,27.42
2023-03-02T23:24:44.427Z,22.60
2023-03-02T23:27:32.083Z,22.48
2023-03-02T23:30:23.094Z,23.92
2023-03-02T23:33:11.082Z,23.77
2023-03-02T23:35:59.040Z,27.67
2023-03-02T23:38:48.526Z,21.20
2023-03-02T23:41:37.617Z,24.25
2023-03-02T23:44:25.510Z,27.60
2023-03-02T23:47:13.396Z,25.38
2023-03-02T23:50:01.332Z,24.65
2023-03-02T23:52:49.546Z,26.48
2023-03-02T23:55:41.067Z,23.70
2023-03-02T23:58:31.531Z,24.70
